Time;durP1;ratioP1;P1;durP2;ratioP2;P2;SDS_P1;SDS_P2;PMS_P1;PMS_P2;Temp;Humidity;BMP_temperature;BMP_pressure;BME280_temperature;BME280_humidity;BME280_pressure;Samples;Min_cycle;Max_cycle;Signal;HPM_P1;HPM_P2
2024/01/21 00:00:29;;;;;;;8.48;5.93;;;4.20;59.70;;;;;;5078428;28;20048;-67
2024/01/21 00:02:55;;;;;;;7.80;5.32;;;4.20;59.80;;;;;;5078057;28;20485;-67
2024/01/21 00:05:20;;;;;;;7.90;5.63;;;4.30;59.80;;;;;;5095926;28;20039;-66
2024/01/21 00:07:46;;;;;;;7.13;5.70;;;4.20;59.80;;;;;;5096254;28;20492;-66
2024/01/21 00:10:11;;;;;;;9.20;6.05;;;4.20;59.80;;;;;;5096429;28;20074;-66
2024/01/21 00:12:38;;;;;;;7.50;5.90;;;4.20;59.80;;;;;;5096678;28;20044;-67
2024/01/21 00:15:07;;;;;;;6.65;5.28;;;4.20;59.80;;;;;;5078004;28;20035;-67
2024/01/21 00:17:32;;;;;;;10.10;6.18;;;4.20;59.80;;;;;;5096208;28;20032;-66
2024/01/21 00:19:58;;;;;;;7.68;5.22;;;4.20;59.80;;;;;;5096241;28;20028;-66
2024/01/21 00:22:24;;;;;;;8.77;5.22;;;4.20;59.80;;;;;;5077749;28;20044;-66
2024/01/21 00:24:49;;;;;;;7.13;5.60;;;4.30;59.90;;;;;;5096063;28;20020;-67
2024/01/21 00:27:15;;;;;;;5.78;5.00;;;4.20;59.80;;;;;;5096155;28;20058;-66
2024/01/21 00:29:40;;;;;;;7.55;6.03;;;4.30;59.90;;;;;;5077884;28;20020;-67
2024/01/21 00:32:06;;;;;;;8.52;5.68;;;4.20;59.80;;;;;;5078061;28;20456;-67
2024/01/21 00:34:32;;;;;;;7.78;5.15;;;4.30;59.90;;;;;;5078058;28;20519;-66
2024/01/21 00:36:57;;;;;;;7.07;5.72;;;4.30;60.10;;;;;;5077681;28;20485;-66
2024/01/21 00:39:23;;;;;;;7.63;6.13;;;4.30;59.90;;;;;;5077242;28;20063;-67
2024/01/21 00:41:49;;;;;;;7.68;5.85;;;4.30;59.90;;;;;;5095731;28;20466;-67
2024/01/21 00:44:15;;;;;;;6.75;5.20;;;4.30;59.90;;;;;;5077444;28;20024;-66
2024/01/21 06:51:42;;;;;;;5.00;3.75;;;4.70;63.20;;;;;;5092245;28;20450;-67
2024/01/21 06:54:12;;;;;;;4.40;3.55;;;4.70;63.20;;;;;;5069980;28;20025;-70
2024/01/21 06:56:37;;;;;;;5.18;3.72;;;4.70;63.10;;;;;;5093324;28;20012;-66
2024/01/21 06:59:04;;;;;;;5.03;4.10;;;4.80;63.10;;;;;;5076018;28;20557;-67
2024/01/21 07:01:30;;;;;;;4.55;4.00;;;4.80;63.10;;;;;;5075671;28;20028;-67
2024/01/21 07:03:55;;;;;;;4.88;3.78;;;4.80;63.10;;;;;;5075169;28;20080;-68
2024/01/21 07:06:21;;;;;;;6.53;4.63;;;4.80;63.00;;;;;;5075494;28;20039;-67
2024/01/21 07:08:47;;;;;;;5.43;4.32;;;4.90;63.00;;;;;;5075311;28;20035;-66
2024/01/21 07:11:13;;;;;;;5.45;4.45;;;4.90;63.00;;;;;;5074984;28;20032;-66
2024/01/21 07:13:39;;;;;;;6.47;4.30;;;4.90;63.00;;;;;;5092939;28;20474;-69
2024/01/21 07:16:05;;;;;;;5.65;4.28;;;4.90;63.00;;;;;;5074752;28;20017;-67
2024/01/21 07:18:30;;;;;;;4.95;4.13;;;5.00;63.00;;;;;;5093339;28;20030;-67
2024/01/21 07:20:56;;;;;;;5.65;4.68;;;5.00;63.00;;;;;;5075486;28;20063;-68
2024/01/21 07:23:22;;;;;;;5.70;4.57;;;5.00;63.00;;;;;;5090158;28;20044;-70
2024/01/21 07:25:48;;;;;;;5.70;4.18;;;5.10;63.00;;;;;;5090538;28;20032;-69
2024/01/21 07:28:15;;;;;;;5.88;4.00;;;5.10;63.00;;;;;;5090372;28;20035;-69
2024/01/21 07:30:41;;;;;;;5.72;4.18;;;5.10;63.00;;;;;;5072543;28;20028;-68
2024/01/21 07:33:07;;;;;;;6.63;4.32;;;5.20;63.00;;;;;;5072800;28;20082;-68
2024/01/21 07:35:51;;;;;;;6.13;4.30;;;5.20;63.00;;;;;;5074194;28;20107;-68
2024/01/21 07:38:37;;;;;;;6.47;5.40;;;5.30;63.10;;;;;;5085194;28;20067;-73
2024/01/21 07:41:03;;;;;;;4.53;3.80;;;5.30;63.00;;;;;;5081821;28;20093;-68
2024/01/21 07:43:32;;;;;;;6.05;5.07;;;5.40;63.00;;;;;;5079228;28;20024;-67
2024/01/21 07:45:57;;;;;;;5.38;4.25;;;5.50;62.90;;;;;;5112937;28;20024;-67
2024/01/21 07:48:23;;;;;;;5.05;4.47;;;5.50;62.80;;;;;;5113004;28;20537;-68
2024/01/21 07:50:49;;;;;;;6.75;4.82;;;5.60;62.80;;;;;;5097560;28;20028;-67
2024/01/21 07:53:19;;;;;;;5.50;4.35;;;5.60;62.70;;;;;;5113464;28;20347;-66
2024/01/21 07:55:45;;;;;;;5.20;4.38;;;5.60;62.70;;;;;;5079829;28;20017;-72
2024/01/21 07:58:12;;;;;;;5.07;4.40;;;5.70;62.70;;;;;;5079876;28;20027;-67
2024/01/21 08:00:38;;;;;;;6.10;4.50;;;5.70;62.70;;;;;;5114751;28;20052;-68
2024/01/21 08:03:05;;;;;;;7.43;5.47;;;5.70;62.60;;;;;;5113153;28;20082;-67
2024/01/21 08:05:33;;;;;;;5.50;4.65;;;5.80;62.70;;;;;;5079523;28;20157;-68
2024/01/21 08:07:58;;;;;;;6.82;4.90;;;5.80;62.60;;;;;;5112824;28;20441;-70
2024/01/21 08:10:24;;;;;;;5.95;4.45;;;5.90;62.70;;;;;;5096749;28;20050;-70
2024/01/21 08:12:50;;;;;;;6.55;4.78;;;5.80;62.70;;;;;;5097324;28;20378;-72
2024/01/21 08:15:16;;;;;;;6.00;4.65;;;5.80;62.80;;;;;;5112462;28;20023;-72
2024/01/21 08:17:42;;;;;;;5.70;4.60;;;5.90;62.80;;;;;;5096772;28;20427;-73
2024/01/21 08:20:09;;;;;;;8.23;4.50;;;5.90;62.80;;;;;;5097261;28;20023;-72
2024/01/21 08:22:35;;;;;;;5.53;4.30;;;5.90;62.80;;;;;;5078381;28;20032;-70
2024/01/21 08:25:01;;;;;;;6.13;4.72;;;5.90;62.70;;;;;;5096965;28;20020;-78
2024/01/21 08:27:28;;;;;;;5.85;4.35;;;5.90;62.80;;;;;;5096596;28;20466;-78
2024/01/21 08:29:54;;;;;;;5.80;4.15;;;6.00;62.80;;;;;;5078555;28;20024;-79
2024/01/21 08:32:19;;;;;;;7.28;5.28;;;6.00;62.80;;;;;;5096204;28;20020;-79
2024/01/21 08:34:45;;;;;;;6.47;4.45;;;6.00;62.80;;;;;;5096835;28;20028;-76
2024/01/21 08:37:11;;;;;;;5.72;4.72;;;6.00;62.90;;;;;;5112299;28;20442;-75
2024/01/21 08:39:37;;;;;;;5.97;4.68;;;6.00;62.90;;;;;;5112089;28;20020;-77
2024/01/21 08:42:03;;;;;;;6.63;4.80;;;6.00;62.90;;;;;;5095991;28;20082;-77
2024/01/21 08:44:29;;;;;;;5.50;4.60;;;6.10;63.00;;;;;;5078066;28;20055;-76
2024/01/21 08:50:25;;;;;;;5.88;4.43;;;6.10;62.90;;;;;;5095232;28;20477;-79
2024/01/21 08:52:51;;;;;;;5.60;4.68;;;6.10;63.50;;;;;;5111638;28;20184;-74
2024/01/21 08:55:17;;;;;;;6.50;4.95;;;6.10;62.90;;;;;;5078081;28;20043;-70
2024/01/21 08:57:43;;;;;;;7.07;4.57;;;6.10;63.00;;;;;;5078473;28;20023;-75
2024/01/21 09:00:10;;;;;;;5.72;4.38;;;6.30;67.00;;;;;;5078345;28;20020;-70
2024/01/21 09:02:35;;;;;;;4.65;4.13;;;6.50;67.70;;;;;;5078019;28;20035;-72
2024/01/21 09:05:01;;;;;;;6.25;3.90;;;6.80;66.90;;;;;;5096054;28;20020;-77
2024/01/21 09:07:27;;;;;;;6.13;3.92;;;6.90;69.50;;;;;;5112150;28;20059;-75
2024/01/21 09:09:53;;;;;;;6.10;4.03;;;7.40;72.60;;;;;;5112430;28;20400;-77
2024/01/21 09:12:18;;;;;;;6.55;4.53;;;7.70;70.00;;;;;;5111856;28;20498;-79
2024/01/21 09:14:45;;;;;;;6.28;4.68;;;7.90;68.80;;;;;;5078255;28;20377;-74
2024/01/21 09:17:10;;;;;;;6.10;4.30;;;7.90;67.90;;;;;;5077425;28;20054;-78
2024/01/21 09:19:36;;;;;;;7.30;6.03;;;7.90;67.70;;;;;;5111616;28;20020;-82
2024/01/21 09:22:02;;;;;;;7.40;5.05;;;7.90;67.40;;;;;;5117456;28;20123;-78
2024/01/21 09:24:28;;;;;;;6.45;4.75;;;7.80;67.20;;;;;;5122193;28;20031;-81
2024/01/21 09:26:53;;;;;;;5.75;4.85;;;7.70;67.20;;;;;;5106363;28;20061;-79
2024/01/21 09:29:25;;;;;;;6.65;5.22;;;7.50;67.00;;;;;;5119242;28;20024;-86
2024/01/21 09:31:58;;;;;;;6.90;4.70;;;7.50;67.00;;;;;;5105049;28;20051;-83
2024/01/21 09:34:26;;;;;;;7.65;5.70;;;7.40;67.00;;;;;;5084975;28;20032;-84
2024/01/21 09:36:52;;;;;;;6.95;5.22;;;7.30;66.90;;;;;;5100614;28;20051;-83
2024/01/21 09:39:18;;;;;;;6.40;5.00;;;7.20;66.80;;;;;;5079689;28;20023;-80
2024/01/21 09:41:52;;;;;;;6.88;5.10;;;7.10;66.80;;;;;;5078771;28;20042;-81
2024/01/21 09:44:26;;;;;;;7.47;5.63;;;7.00;66.90;;;;;;5079165;28;20020;-85
2024/01/21 09:47:01;;;;;;;6.45;5.20;;;7.00;66.90;;;;;;5097593;28;20511;-81
2024/01/21 09:49:28;;;;;;;6.65;5.45;;;6.90;66.80;;;;;;5096730;28;20028;-81
2024/01/21 09:51:55;;;;;;;7.03;5.55;;;6.80;66.80;;;;;;5096334;28;20036;-85
2024/01/21 09:54:22;;;;;;;6.97;5.82;;;6.80;66.70;;;;;;5084087;28;20024;-77
2024/01/21 09:56:48;;;;;;;7.18;5.53;;;6.80;66.70;;;;;;5099666;28;20020;-78
2024/01/21 09:59:15;;;;;;;6.30;4.90;;;6.80;66.60;;;;;;5113697;28;20427;-84
2024/01/21 10:01:41;;;;;;;6.75;5.32;;;6.80;66.60;;;;;;5081853;28;20024;-81
2024/01/21 10:04:10;;;;;;;6.05;5.00;;;6.80;66.50;;;;;;5118080;28;20024;-85
2024/01/21 10:06:37;;;;;;;5.95;5.30;;;6.80;66.40;;;;;;5083634;28;20016;-78
2024/01/21 10:09:21;;;;;;;7.32;5.28;;;6.80;66.30;;;;;;5102032;28;20055;-83
2024/01/21 10:12:05;;;;;;;6.88;5.13;;;6.90;66.20;;;;;;5100235;28;20031;-84
2024/01/21 10:14:31;;;;;;;7.73;5.97;;;6.90;66.00;;;;;;5077657;28;20016;-82
2024/01/21 10:16:58;;;;;;;6.65;5.35;;;6.80;65.90;;;;;;5112201;28;20284;-84
2024/01/21 10:19:25;;;;;;;8.00;5.82;;;6.80;65.90;;;;;;5095855;28;20020;-81
2024/01/21 10:21:51;;;;;;;7.47;6.07;;;6.80;65.80;;;;;;5096145;28;20036;-82
2024/01/21 10:27:40;;;;;;;7.82;6.03;;;6.80;65.80;;;;;;5098528;28;20023;-83
2024/01/21 10:30:12;;;;;;;8.40;5.85;;;6.70;65.70;;;;;;5078425;28;20378;-83
2024/01/21 10:32:37;;;;;;;6.38;5.57;;;6.70;65.70;;;;;;5096785;28;20446;-82
2024/01/21 10:35:06;;;;;;;7.28;6.13;;;6.70;65.70;;;;;;5094120;28;20020;-80
2024/01/21 10:37:36;;;;;;;8.30;6.45;;;6.60;65.60;;;;;;5095167;28;20031;-79
2024/01/21 10:40:02;;;;;;;8.48;6.18;;;6.60;65.70;;;;;;5060150;28;20054;-77
2024/01/21 10:42:28;;;;;;;7.43;5.60;;;6.50;65.60;;;;;;5076984;28;20158;-82
2024/01/21 10:44:55;;;;;;;7.75;5.35;;;6.50;65.70;;;;;;5095856;28;20065;-82
2024/01/21 10:47:21;;;;;;;6.78;4.95;;;6.40;66.10;;;;;;5095952;28;20023;-81
2024/01/21 10:49:49;;;;;;;6.85;5.65;;;6.40;66.20;;;;;;5094790;28;20028;-80
2024/01/21 10:52:16;;;;;;;8.52;5.82;;;6.40;66.10;;;;;;5076100;28;20476;-82
2024/01/21 10:54:46;;;;;;;7.82;5.70;;;6.30;66.10;;;;;;5078016;28;20026;-83
2024/01/21 10:57:14;;;;;;;8.20;6.13;;;6.30;66.00;;;;;;5078608;28;20110;-86
2024/01/21 10:59:40;;;;;;;7.65;5.95;;;6.20;66.00;;;;;;5098178;28;20095;-79
2024/01/21 11:02:08;;;;;;;8.13;6.13;;;6.20;66.10;;;;;;5077005;28;20112;-80
2024/01/21 11:04:37;;;;;;;7.35;5.78;;;6.10;66.30;;;;;;5081063;28;20024;-77
2024/01/21 11:07:05;;;;;;;6.57;5.30;;;6.10;66.50;;;;;;5107509;28;20020;-82
2024/01/21 11:09:35;;;;;;;11.30;6.80;;;6.10;66.50;;;;;;5087989;28;20039;-80
2024/01/21 11:12:04;;;;;;;7.72;5.47;;;6.20;66.50;;;;;;5104001;28;20119;-80
2024/01/21 11:14:40;;;;;;;7.53;6.00;;;6.20;66.40;;;;;;5085384;28;20109;-77
2024/01/21 11:17:11;;;;;;;8.43;6.10;;;6.20;66.30;;;;;;5082691;28;20369;-75
2024/01/21 11:19:49;;;;;;;6.55;5.63;;;6.20;66.20;;;;;;5080748;28;20141;-77
2024/01/21 11:22:16;;;;;;;7.38;5.68;;;6.20;66.10;;;;;;5081332;28;20036;-78
2024/01/21 11:24:43;;;;;;;7.25;5.80;;;6.20;66.10;;;;;;5081055;28;20032;-81
2024/01/21 11:27:21;;;;;;;8.57;6.25;;;6.20;66.10;;;;;;5083814;28;20024;-77
2024/01/21 11:29:52;;;;;;;7.88;6.45;;;6.20;66.00;;;;;;5081559;28;20476;-84
2024/01/21 11:32:26;;;;;;;8.88;6.22;;;6.10;65.90;;;;;;5099007;28;20028;-80
2024/01/21 11:34:52;;;;;;;11.32;7.72;;;6.10;65.90;;;;;;5079972;28;20106;-77
2024/01/21 11:37:18;;;;;;;10.60;7.47;;;6.10;66.00;;;;;;5097692;28;20463;-78
2024/01/21 11:39:44;;;;;;;10.57;7.45;;;6.00;66.10;;;;;;5097558;28;20086;-87
2024/01/21 11:45:32;;;;;;;10.07;6.75;;;6.00;66.10;;;;;;5097711;28;20058;-79
2024/01/21 11:47:58;;;;;;;10.88;8.10;;;6.00;66.10;;;;;;5080304;28;20055;-84
2024/01/21 11:50:24;;;;;;;43.88;29.80;;;6.00;66.00;;;;;;5080242;28;20463;-81
2024/01/21 11:52:49;;;;;;;39.72;28.45;;;6.00;69.70;;;;;;5079527;28;20051;-81
2024/01/21 11:55:21;;;;;;;34.63;25.95;;;6.30;70.40;;;;;;5079423;28;20035;-84
2024/01/21 11:57:47;;;;;;;30.45;22.73;;;6.50;69.60;;;;;;5079967;28;20020;-80
2024/01/21 12:00:14;;;;;;;24.77;18.98;;;6.60;69.20;;;;;;5079844;28;20028;-83
2024/01/21 12:02:39;;;;;;;20.45;14.93;;;6.70;68.90;;;;;;5097853;28;20089;-82
2024/01/21 12:05:05;;;;;;;15.90;12.48;;;6.70;68.50;;;;;;5079312;28;20024;-81
2024/01/21 12:07:32;;;;;;;11.18;8.82;;;6.60;68.30;;;;;;5079673;28;20016;-83
2024/01/21 12:09:58;;;;;;;12.55;9.10;;;6.50;68.30;;;;;;5102670;28;20024;-83
2024/01/21 12:12:26;;;;;;;9.23;7.53;;;6.50;68.30;;;;;;5083026;28;20024;-81
2024/01/21 12:14:51;;;;;;;9.30;7.57;;;6.50;68.20;;;;;;5098566;28;20024;-84
2024/01/21 12:17:17;;;;;;;9.93;7.00;;;6.40;68.10;;;;;;5080176;28;20032;-82
2024/01/21 12:19:44;;;;;;;8.98;7.00;;;6.40;68.00;;;;;;5080848;28;20374;-85
2024/01/21 12:22:10;;;;;;;8.68;6.68;;;6.30;67.90;;;;;;5080125;28;20056;-81
2024/01/21 12:25:04;;;;;;;8.38;6.80;;;6.30;67.90;;;;;;5079187;28;20027;-85
2024/01/21 12:27:30;;;;;;;7.90;6.05;;;6.30;67.80;;;;;;5068227;28;20032;-82
2024/01/21 12:29:56;;;;;;;8.73;6.55;;;6.20;67.70;;;;;;5097058;28;20397;-84
2024/01/21 12:32:22;;;;;;;7.53;6.28;;;6.20;67.60;;;;;;5079594;28;20050;-82
2024/01/21 12:34:48;;;;;;;7.40;6.13;;;6.20;67.60;;;;;;5097403;28;20020;-83
2024/01/21 12:37:14;;;;;;;7.82;6.30;;;6.10;67.60;;;;;;5079821;28;20118;-81
2024/01/21 12:39:40;;;;;;;8.38;6.53;;;6.10;67.60;;;;;;5098051;28;20415;-80
2024/01/21 12:42:06;;;;;;;7.10;6.18;;;6.10;68.10;;;;;;5079367;28;20097;-82
2024/01/21 12:44:32;;;;;;;8.02;6.88;;;6.00;67.50;;;;;;5097207;28;20023;-79
2024/01/21 12:46:57;;;;;;;7.15;6.20;;;6.00;67.50;;;;;;5096992;28;20024;-82
2024/01/21 12:49:23;;;;;;;9.38;6.75;;;6.00;67.50;;;;;;5083889;28;20035;-83
2024/01/21 12:51:49;;;;;;;9.32;6.88;;;5.90;67.50;;;;;;5084161;28;20048;-82
2024/01/21 12:54:15;;;;;;;8.35;6.75;;;5.90;67.60;;;;;;5084186;28;20077;-81
2024/01/21 12:56:41;;;;;;;9.18;7.65;;;5.90;67.50;;;;;;5081980;28;20369;-81
2024/01/21 12:59:06;;;;;;;7.32;6.20;;;5.90;67.50;;;;;;5102339;28;20549;-82
2024/01/21 13:01:32;;;;;;;9.48;7.30;;;5.90;67.40;;;;;;5081136;28;20055;-83
2024/01/21 13:03:57;;;;;;;9.15;7.03;;;5.90;67.40;;;;;;5098875;28;20073;-82
2024/01/21 13:06:23;;;;;;;10.00;7.47;;;5.90;67.40;;;;;;5079672;28;20435;-81
2024/01/21 13:08:49;;;;;;;9.75;7.85;;;5.90;67.40;;;;;;5079355;28;20024;-82
2024/01/21 13:11:15;;;;;;;10.57;7.90;;;5.90;67.40;;;;;;5097406;28;20052;-82
2024/01/21 13:13:40;;;;;;;9.88;7.50;;;5.90;67.30;;;;;;5096531;28;20020;-84
2024/01/21 13:16:08;;;;;;;9.07;6.68;;;5.80;67.30;;;;;;5078585;28;20020;-82
2024/01/21 13:18:34;;;;;;;8.65;6.57;;;5.80;67.40;;;;;;5096322;28;20458;-83
2024/01/21 13:20:59;;;;;;;8.00;6.20;;;5.80;67.50;;;;;;5078821;28;20032;-81
2024/01/21 13:23:25;;;;;;;7.65;6.50;;;5.80;67.50;;;;;;5078607;28;20366;-82
2024/01/21 13:25:51;;;;;;;8.98;7.28;;;5.80;67.50;;;;;;5096920;28;20099;-83
2024/01/21 13:28:27;;;;;;;8.75;7.07;;;5.70;67.40;;;;;;5096179;28;20027;-81
2024/01/21 13:30:55;;;;;;;8.43;6.57;;;5.80;67.40;;;;;;5096720;28;20062;-80
2024/01/21 13:33:23;;;;;;;10.25;7.25;;;5.70;67.40;;;;;;5079269;28;20039;-82
2024/01/21 13:35:49;;;;;;;9.73;7.05;;;5.70;67.40;;;;;;5099272;28;20020;-81
2024/01/21 13:38:33;;;;;;;10.00;7.13;;;5.70;67.40;;;;;;5081270;28;20024;-81
2024/01/21 13:41:00;;;;;;;9.20;7.72;;;5.60;67.40;;;;;;5079747;28;20430;-81
2024/01/21 13:43:26;;;;;;;9.98;7.20;;;5.60;67.50;;;;;;5097003;28;20040;-82
2024/01/21 13:45:52;;;;;;;11.63;8.45;;;5.60;67.60;;;;;;5078177;28;20446;-82
2024/01/21 13:48:18;;;;;;;12.52;7.63;;;5.60;67.60;;;;;;5078518;28;20020;-83
2024/01/21 13:50:44;;;;;;;11.27;8.20;;;5.50;67.60;;;;;;5096590;28;20024;-82
2024/01/21 13:53:10;;;;;;;11.25;8.57;;;5.50;67.60;;;;;;5096950;28;20044;-82
2024/01/21 13:55:37;;;;;;;11.43;7.72;;;5.50;67.60;;;;;;5077554;28;20024;-82
2024/01/21 13:58:04;;;;;;;10.48;7.03;;;5.40;67.70;;;;;;5077767;28;20019;-83
2024/01/21 14:00:31;;;;;;;10.32;7.10;;;5.40;67.70;;;;;;5077433;28;20048;-82
2024/01/21 14:02:58;;;;;;;9.38;7.25;;;5.40;67.80;;;;;;5077770;28;20032;-81
2024/01/21 14:05:28;;;;;;;9.60;6.95;;;5.40;67.80;;;;;;5078006;28;20032;-83
2024/01/21 14:07:54;;;;;;;9.88;7.13;;;5.40;67.80;;;;;;5095867;28;20078;-80
2024/01/21 14:10:21;;;;;;;8.90;6.80;;;5.40;67.80;;;;;;5096290;28;20073;-81
2024/01/21 14:12:48;;;;;;;7.78;6.10;;;5.40;68.30;;;;;;5095246;28;20454;-85
2024/01/21 14:15:14;;;;;;;9.60;7.13;;;5.40;67.70;;;;;;5095286;28;20368;-81
2024/01/21 14:17:40;;;;;;;10.20;7.75;;;5.40;67.70;;;;;;5095563;28;20082;-81
2024/01/21 14:20:09;;;;;;;9.10;6.90;;;5.50;67.80;;;;;;5095997;28;20034;-81
2024/01/21 14:22:39;;;;;;;8.73;7.07;;;5.40;67.70;;;;;;5095234;28;20038;-83
2024/01/21 14:25:19;;;;;;;10.75;7.55;;;5.40;67.70;;;;;;5102504;28;20012;-83
2024/01/21 14:27:44;;;;;;;9.15;6.75;;;5.40;67.70;;;;;;5081383;28;20119;-82
2024/01/21 14:30:16;;;;;;;9.68;7.18;;;5.40;67.80;;;;;;5095843;28;20062;-83
2024/01/21 14:32:42;;;;;;;8.43;7.07;;;5.40;67.70;;;;;;5080191;28;20020;-81
2024/01/21 14:35:08;;;;;;;9.38;6.95;;;5.40;67.80;;;;;;5081505;28;20068;-82
2024/01/21 14:37:34;;;;;;;7.97;6.35;;;5.30;67.70;;;;;;5099753;28;20024;-82
2024/01/21 14:39:59;;;;;;;9.10;6.60;;;5.30;67.80;;;;;;5099178;28;20024;-82
2024/01/21 14:42:25;;;;;;;9.13;6.75;;;5.30;67.90;;;;;;5096757;28;20030;-77
2024/01/21 14:44:54;;;;;;;8.13;6.15;;;5.30;67.90;;;;;;5096538;28;20456;-77
2024/01/21 14:47:19;;;;;;;9.35;7.25;;;5.30;67.90;;;;;;5098235;28;20472;-83
2024/01/21 14:49:45;;;;;;;9.18;7.07;;;5.20;67.90;;;;;;5095270;28;20050;-79
2024/01/21 14:52:11;;;;;;;9.95;7.45;;;5.20;67.90;;;;;;5095156;28;20048;-82
2024/01/21 14:54:36;;;;;;;9.75;7.20;;;5.20;68.00;;;;;;5077261;28;20055;-81
2024/01/21 14:57:03;;;;;;;10.52;7.28;;;5.20;68.00;;;;;;5076638;28;20024;-79
2024/01/21 14:59:28;;;;;;;12.15;8.70;;;5.10;67.90;;;;;;5094120;28;20030;-80
2024/01/21 15:01:54;;;;;;;12.95;9.00;;;5.00;67.90;;;;;;5076222;28;20032;-78
2024/01/21 15:04:20;;;;;;;12.38;8.32;;;4.90;68.00;;;;;;5094623;28;20070;-79
2024/01/21 15:06:46;;;;;;;11.40;8.23;;;4.90;68.10;;;;;;5077623;28;20020;-79
2024/01/21 15:09:12;;;;;;;10.27;7.57;;;4.90;68.20;;;;;;5095562;28;20024;-78
2024/01/21 15:11:38;;;;;;;12.60;8.25;;;4.90;68.30;;;;;;5094266;28;20047;-78
2024/01/21 15:14:35;;;;;;;12.02;8.10;;;4.90;68.20;;;;;;5075865;28;20070;-82
2024/01/21 15:17:01;;;;;;;12.50;8.70;;;4.80;68.10;;;;;;5076865;28;20024;-78
2024/01/21 15:19:26;;;;;;;11.60;7.90;;;4.80;68.10;;;;;;5094712;28;20342;-74
2024/01/21 15:21:52;;;;;;;12.23;8.32;;;4.80;68.10;;;;;;5076072;28;20036;-81
2024/01/21 15:24:18;;;;;;;14.30;8.25;;;4.70;68.00;;;;;;5076150;28;20055;-80
2024/01/21 15:26:43;;;;;;;11.52;8.15;;;4.70;68.00;;;;;;5094238;28;20028;-79
2024/01/21 15:29:09;;;;;;;12.95;8.30;;;4.70;68.00;;;;;;5096975;28;20081;-77
2024/01/21 15:31:35;;;;;;;14.20;8.88;;;4.70;68.10;;;;;;5095702;28;20031;-80
2024/01/21 15:34:01;;;;;;;12.10;8.40;;;4.60;68.10;;;;;;5077446;28;20016;-77
2024/01/21 15:36:27;;;;;;;11.02;8.68;;;4.50;68.60;;;;;;5077824;28;20032;-90
2024/01/21 15:38:53;;;;;;;12.60;9.07;;;4.60;68.20;;;;;;5078893;28;20283;-82
2024/01/21 15:41:19;;;;;;;12.48;8.38;;;4.50;68.20;;;;;;5094527;28;20027;-85
2024/01/21 15:43:45;;;;;;;13.73;9.07;;;4.50;68.20;;;;;;5095971;28;20044;-82
2024/01/21 15:46:11;;;;;;;12.70;8.55;;;4.50;68.20;;;;;;5078582;28;20050;-81
2024/01/21 15:48:37;;;;;;;10.98;7.32;;;4.50;68.20;;;;;;5095750;28;20070;-78
2024/01/21 15:51:03;;;;;;;13.32;8.90;;;4.50;68.20;;;;;;5093848;28;20112;-85
2024/01/21 15:53:32;;;;;;;10.52;7.35;;;4.50;68.10;;;;;;5075500;28;20150;-78
2024/01/21 15:55:57;;;;;;;11.70;8.25;;;4.50;68.00;;;;;;5095269;28;20020;-83
2024/01/21 15:58:23;;;;;;;10.90;8.05;;;4.60;68.10;;;;;;5075756;28;20446;-77
2024/01/21 16:00:49;;;;;;;10.52;8.15;;;4.50;68.00;;;;;;5077584;28;20114;-77
2024/01/21 16:03:15;;;;;;;11.27;7.50;;;4.60;68.00;;;;;;5097145;28;20028;-79
2024/01/21 16:05:41;;;;;;;8.90;6.40;;;4.50;67.80;;;;;;5081934;28;20027;-85
2024/01/21 16:08:07;;;;;;;10.43;7.20;;;4.50;67.80;;;;;;5082167;28;20393;-80
2024/01/21 16:10:33;;;;;;;9.55;7.20;;;4.60;67.80;;;;;;5078626;28;20027;-77
2024/01/21 16:12:59;;;;;;;11.00;7.32;;;4.60;67.70;;;;;;5097769;28;20024;-78
2024/01/21 16:15:24;;;;;;;10.30;7.63;;;4.50;67.70;;;;;;5098993;28;20099;-82
2024/01/21 16:17:50;;;;;;;11.10;7.47;;;4.50;67.70;;;;;;5080898;28;20020;-76
2024/01/21 16:20:16;;;;;;;10.88;7.55;;;4.50;67.60;;;;;;5081289;28;20020;-80
2024/01/21 16:22:42;;;;;;;10.60;7.35;;;4.50;67.60;;;;;;5097230;28;20039;-77
2024/01/21 16:25:09;;;;;;;10.43;7.53;;;4.50;67.50;;;;;;5079908;28;20020;-81
2024/01/21 16:27:35;;;;;;;10.52;7.80;;;4.60;67.50;;;;;;5099304;28;20454;-79
2024/01/21 16:30:01;;;;;;;10.43;7.65;;;4.50;67.50;;;;;;5081450;28;20024;-78
2024/01/21 16:32:26;;;;;;;10.13;7.20;;;4.50;67.40;;;;;;5083565;28;20020;-85
2024/01/21 16:34:52;;;;;;;10.70;7.82;;;4.60;67.40;;;;;;5080611;28;20048;-81
2024/01/21 16:37:18;;;;;;;9.70;7.40;;;4.50;67.40;;;;;;5098536;28;20380;-78
2024/01/21 16:39:44;;;;;;;10.88;7.43;;;4.50;67.30;;;;;;5096917;28;20107;-76
2024/01/21 16:42:10;;;;;;;10.18;7.38;;;4.50;67.30;;;;;;5084711;28;20516;-84
2024/01/21 16:44:35;;;;;;;11.65;7.10;;;4.50;67.30;;;;;;5099795;28;20024;-84
2024/01/21 16:47:02;;;;;;;11.27;7.32;;;4.50;67.20;;;;;;5098940;28;20021;-85
2024/01/21 16:49:28;;;;;;;9.43;6.95;;;4.40;67.20;;;;;;5097722;28;20027;-83
2024/01/21 16:52:06;;;;;;;11.95;7.25;;;4.40;67.10;;;;;;5096467;28;20473;-78
2024/01/21 16:54:36;;;;;;;9.25;6.57;;;4.40;67.10;;;;;;5096261;28;20052;-80
2024/01/21 17:00:29;;;;;;;10.73;7.15;;;4.40;67.00;;;;;;5097059;28;20120;-80
2024/01/21 17:02:58;;;;;;;9.85;7.00;;;4.30;67.20;;;;;;5081259;28;20024;-87
2024/01/21 17:05:24;;;;;;;9.20;7.10;;;4.40;67.70;;;;;;5102988;28;20023;-84
2024/01/21 17:07:50;;;;;;;9.77;6.60;;;4.40;67.80;;;;;;5099900;28;20024;-73
2024/01/21 17:10:24;;;;;;;9.63;6.85;;;4.50;67.70;;;;;;5096540;28;20028;-73
2024/01/21 17:12:51;;;;;;;9.45;6.90;;;4.50;67.50;;;;;;5076538;28;20031;-74
2024/01/21 17:15:17;;;;;;;10.70;7.20;;;4.50;67.40;;;;;;5077722;28;20157;-73
2024/01/21 17:17:52;;;;;;;9.95;7.00;;;4.50;67.30;;;;;;5095462;28;20196;-73
2024/01/21 17:20:17;;;;;;;11.00;8.05;;;4.50;67.20;;;;;;5095773;28;20016;-74
2024/01/21 17:22:43;;;;;;;10.70;7.57;;;4.40;67.10;;;;;;5095445;28;20410;-73
2024/01/21 17:25:09;;;;;;;9.90;6.97;;;4.40;67.10;;;;;;5095522;28;20024;-75
2024/01/21 17:27:35;;;;;;;11.20;7.18;;;4.30;67.10;;;;;;5095132;28;20024;-72
2024/01/21 17:30:05;;;;;;;9.40;6.72;;;4.30;67.10;;;;;;5077292;28;20024;-73
2024/01/21 17:32:31;;;;;;;12.25;8.05;;;4.30;67.00;;;;;;5095041;28;20028;-73
2024/01/21 17:34:56;;;;;;;10.85;7.20;;;4.30;67.00;;;;;;5095263;28;20020;-74
2024/01/21 17:37:22;;;;;;;9.60;7.43;;;4.30;67.00;;;;;;5095563;28;20019;-73
2024/01/21 17:39:48;;;;;;;10.70;7.80;;;4.30;67.00;;;;;;5076887;28;20016;-74
2024/01/21 17:42:14;;;;;;;10.25;7.10;;;4.30;67.00;;;;;;5076948;28;20066;-79
2024/01/21 17:44:40;;;;;;;12.38;7.93;;;4.30;67.00;;;;;;5095372;28;20052;-75
2024/01/21 17:50:44;;;;;;;11.90;7.18;;;4.20;66.90;;;;;;5084664;28;20404;-71
2024/01/21 17:53:09;;;;;;;12.73;8.07;;;4.20;66.90;;;;;;5077482;28;20123;-73
2024/01/21 17:55:35;;;;;;;13.23;8.45;;;4.30;66.80;;;;;;5076897;28;20021;-72
2024/01/21 17:58:01;;;;;;;11.68;7.68;;;4.30;66.80;;;;;;5076879;28;20016;-72
2024/01/21 18:00:27;;;;;;;13.57;8.85;;;4.20;66.70;;;;;;5076844;28;20099;-73
2024/01/21 18:02:52;;;;;;;13.70;9.15;;;4.20;66.60;;;;;;5095273;28;20028;-74
2024/01/21 18:05:20;;;;;;;12.30;7.63;;;4.20;66.70;;;;;;5095081;28;20081;-74
2024/01/21 18:07:46;;;;;;;12.57;8.40;;;4.20;66.70;;;;;;5095173;28;20128;-74
2024/01/21 18:10:12;;;;;;;13.50;8.63;;;4.20;66.70;;;;;;5094736;28;20500;-73
2024/01/21 18:12:38;;;;;;;9.93;7.13;;;4.20;66.70;;;;;;5077423;28;20027;-73
2024/01/21 18:15:05;;;;;;;14.10;9.02;;;4.20;66.70;;;;;;5076481;28;20081;-74
2024/01/21 18:17:30;;;;;;;14.30;9.30;;;4.20;66.60;;;;;;5076353;28;20028;-73
2024/01/21 18:19:56;;;;;;;11.52;7.50;;;4.20;66.60;;;;;;5095228;28;20031;-74
2024/01/21 18:22:22;;;;;;;11.20;7.30;;;4.20;66.60;;;;;;5094426;28;20036;-77
2024/01/21 18:24:52;;;;;;;13.25;8.55;;;4.20;66.50;;;;;;5094676;28;20024;-74
2024/01/21 18:27:18;;;;;;;11.73;7.78;;;4.20;66.50;;;;;;5094865;28;20016;-73
2024/01/21 18:29:45;;;;;;;12.07;7.95;;;4.20;66.50;;;;;;5094432;28;20028;-74
2024/01/21 18:32:11;;;;;;;11.00;7.20;;;4.20;66.50;;;;;;5075986;28;20028;-74
2024/01/21 18:34:36;;;;;;;12.80;8.10;;;4.20;66.50;;;;;;5076872;28;20031;-74
2024/01/21 18:37:14;;;;;;;12.15;8.60;;;4.10;66.40;;;;;;5095663;28;20043;-74
2024/01/21 18:39:40;;;;;;;13.40;8.43;;;4.10;66.50;;;;;;5095576;28;20036;-72
2024/01/21 18:42:06;;;;;;;13.05;8.45;;;4.10;66.50;;;;;;5077051;28;20461;-74
2024/01/21 18:44:33;;;;;;;13.15;8.27;;;4.10;66.40;;;;;;5076334;28;20111;-72
2024/01/21 18:46:59;;;;;;;13.18;8.63;;;4.10;66.30;;;;;;5094650;28;20024;-72
2024/01/21 18:49:25;;;;;;;11.82;8.38;;;4.10;66.30;;;;;;5076261;28;20074;-72
2024/01/21 18:51:53;;;;;;;13.07;8.45;;;4.00;66.20;;;;;;5075807;28;20039;-73
2024/01/21 18:54:19;;;;;;;11.15;7.90;;;4.00;66.20;;;;;;5076241;28;20107;-74
2024/01/21 18:56:45;;;;;;;12.02;8.43;;;4.00;66.20;;;;;;5076467;28;20173;-74
2024/01/21 18:59:11;;;;;;;13.13;8.43;;;4.00;66.20;;;;;;5093929;28;20016;-74
2024/01/21 19:01:37;;;;;;;12.25;7.80;;;4.00;66.20;;;;;;5094868;28;20027;-73
2024/01/21 19:04:03;;;;;;;38.75;29.83;;;4.00;66.20;;;;;;5075698;28;20374;-73
2024/01/21 19:06:28;;;;;;;32.90;24.35;;;4.00;66.80;;;;;;5093727;28;20016;-73
2024/01/21 19:08:54;;;;;;;25.70;17.80;;;4.00;66.80;;;;;;5094250;28;20028;-73
2024/01/21 19:11:20;;;;;;;17.60;13.63;;;4.00;66.80;;;;;;5075999;28;20020;-73
2024/01/21 19:13:49;;;;;;;17.30;12.27;;;4.10;66.70;;;;;;5075777;28;20028;-73